createdAt,value
2018-03-08T00:01:50.943Z,7.02
2018-03-08T00:04:19.104Z,7.04
2018-03-08T00:06:47.350Z,7.08
2018-03-08T00:09:15.520Z,7.12
2018-03-08T00:11:43.720Z,7.20
2018-03-08T00:14:11.901Z,7.12
2018-03-08T00:16:40.077Z,7.13
2018-03-08T00:19:08.274Z,7.23
2018-03-08T00:21:36.438Z,7.23
2018-03-08T00:24:05.395Z,7.15
2018-03-08T00:26:33.603Z,7.08
2018-03-08T00:29:01.784Z,6.94
2018-03-08T00:31:29.966Z,6.99
2018-03-08T00:33:58.136Z,6.96
2018-03-08T00:36:26.339Z,6.91
2018-03-08T00:38:55.278Z,6.91
2018-03-08T00:41:23.450Z,6.90
2018-03-08T00:43:51.633Z,6.93
2018-03-08T00:46:19.817Z,6.88
2018-03-08T00:48:48.013Z,6.90
2018-03-08T00:51:16.194Z,6.96
2018-03-08T00:53:44.400Z,6.87
2018-03-08T00:56:12.588Z,6.93
2018-03-08T00:58:40.753Z,6.94
2018-03-08T01:01:08.924Z,6.89
2018-03-08T01:03:37.105Z,6.93
2018-03-08T01:06:05.271Z,6.86
2018-03-08T01:08:33.438Z,6.84
2018-03-08T01:11:02.377Z,6.84
2018-03-08T01:13:30.576Z,6.77
2018-03-08T01:15:58.765Z,6.77
2018-03-08T01:18:27.690Z,6.76
2018-03-08T01:20:55.856Z,6.75
2018-03-08T01:23:24.039Z,6.77
2018-03-08T01:25:52.205Z,6.80
2018-03-08T01:28:20.366Z,6.77
2018-03-08T01:30:49.324Z,6.79
2018-03-08T01:33:17.518Z,6.81
2018-03-08T01:35:46.452Z,6.79
2018-03-08T01:38:14.653Z,6.79
2018-03-08T01:40:42.828Z,6.83
2018-03-08T01:43:10.998Z,6.83
2018-03-08T01:45:39.193Z,6.82
2018-03-08T01:48:07.382Z,6.87
2018-03-08T01:50:35.562Z,6.85
2018-03-08T01:53:03.742Z,6.86
2018-03-08T01:55:32.679Z,6.89
2018-03-08T01:58:00.859Z,6.89
2018-03-08T02:00:29.023Z,6.94
2018-03-08T02:02:57.202Z,6.96
2018-03-08T02:05:25.395Z,6.97
2018-03-08T02:07:53.614Z,6.98
2018-03-08T02:10:22.574Z,6.98
2018-03-08T02:12:50.775Z,6.98
2018-03-08T02:15:19.728Z,6.97
2018-03-08T02:17:47.923Z,6.99
2018-03-08T02:20:16.093Z,7.00
2018-03-08T02:22:44.289Z,7.00
2018-03-08T02:25:12.461Z,7.01
2018-03-08T02:27:40.640Z,7.01
2018-03-08T02:30:09.579Z,6.95
2018-03-08T02:32:37.783Z,6.94
2018-03-08T02:35:06.022Z,6.94
2018-03-08T02:37:34.185Z,6.97
2018-03-08T02:40:02.363Z,7.00
2018-03-08T02:42:30.555Z,6.99
2018-03-08T02:44:58.753Z,6.99
2018-03-08T02:47:26.950Z,6.99
2018-03-08T02:49:55.931Z,6.98
2018-03-08T02:52:24.102Z,6.93
2018-03-08T02:54:52.272Z,6.91
2018-03-08T02:57:20.462Z,6.80
2018-03-08T02:59:48.629Z,6.85
2018-03-08T03:02:16.790Z,6.88
2018-03-08T03:04:44.984Z,6.79
2018-03-08T03:07:13.146Z,6.73
2018-03-08T03:09:41.327Z,6.73
2018-03-08T03:12:09.514Z,6.70
2018-03-08T03:14:39.178Z,6.65
2018-03-08T03:17:07.376Z,6.67
2018-03-08T03:19:35.539Z,6.66
2018-03-08T03:22:03.738Z,6.63
2018-03-08T03:24:31.897Z,6.63
2018-03-08T03:27:00.083Z,6.56
2018-03-08T03:29:28.246Z,6.54
2018-03-08T03:31:56.414Z,6.51
2018-03-08T03:34:25.376Z,6.47
2018-03-08T03:36:53.590Z,6.42
2018-03-08T03:39:21.751Z,6.38
2018-03-08T03:41:49.924Z,6.39
2018-03-08T03:44:18.106Z,6.34
2018-03-08T03:46:46.278Z,6.27
2018-03-08T03:49:14.478Z,6.27
2018-03-08T03:51:42.678Z,6.30
2018-03-08T03:54:11.662Z,6.31
2018-03-08T03:56:40.599Z,6.33
2018-03-08T03:59:08.789Z,6.32
2018-03-08T04:01:36.986Z,6.35
2018-03-08T04:04:05.159Z,6.30
2018-03-08T04:06:33.335Z,6.41
2018-03-08T04:09:01.507Z,6.31
2018-03-08T04:11:29.711Z,6.20
2018-03-08T04:13:58.655Z,6.11
2018-03-08T04:16:27.617Z,6.11
2018-03-08T04:18:55.782Z,6.10
2018-03-08T04:21:23.942Z,6.03
2018-03-08T04:23:52.899Z,6.00
2018-03-08T04:26:21.069Z,5.92
2018-03-08T04:28:49.244Z,5.89
2018-03-08T04:31:17.415Z,5.85
2018-03-08T04:33:45.583Z,5.93
2018-03-08T04:36:13.759Z,5.87
2018-03-08T04:38:41.945Z,5.80
2018-03-08T04:41:10.145Z,5.76
2018-03-08T04:43:38.337Z,5.69
2018-03-08T04:46:07.267Z,5.63
2018-03-08T04:48:35.425Z,5.58
2018-03-08T04:51:03.590Z,5.53
2018-03-08T04:53:31.747Z,5.48
2018-03-08T04:56:00.709Z,5.39
2018-03-08T04:58:28.978Z,5.35
2018-03-08T05:00:57.174Z,5.31
2018-03-08T05:03:25.330Z,5.28
2018-03-08T05:05:53.498Z,5.21
2018-03-08T05:08:21.677Z,5.09
2018-03-08T05:10:49.842Z,5.01
2018-03-08T05:13:18.066Z,5.04
2018-03-08T05:15:47.020Z,4.99
2018-03-08T05:18:15.223Z,4.90
2018-03-08T05:20:43.390Z,4.88
2018-03-08T05:23:11.561Z,4.87
2018-03-08T05:25:39.748Z,4.79
2018-03-08T05:28:07.930Z,4.73
2018-03-08T05:30:36.891Z,4.70
2018-03-08T05:33:05.077Z,4.64
2018-03-08T05:35:33.269Z,4.70
2018-03-08T05:38:02.215Z,4.74
2018-03-08T05:40:30.387Z,4.75
2018-03-08T05:42:58.579Z,4.80
2018-03-08T05:45:26.746Z,4.84
2018-03-08T05:47:54.911Z,4.82
2018-03-08T05:50:23.108Z,4.77
2018-03-08T05:52:51.282Z,4.74
2018-03-08T05:55:19.451Z,4.73
2018-03-08T05:57:47.614Z,4.72
2018-03-08T06:00:15.813Z,4.70
2018-03-08T06:02:44.012Z,4.76
2018-03-08T06:05:12.953Z,4.69
2018-03-08T06:07:41.180Z,4.65
2018-03-08T06:10:10.187Z,4.64
2018-03-08T06:12:38.358Z,4.73
2018-03-08T06:15:07.303Z,4.73
2018-03-08T06:17:35.469Z,4.78
2018-03-08T06:20:03.662Z,4.86
2018-03-08T06:22:31.844Z,4.86
2018-03-08T06:25:00.024Z,4.88
2018-03-08T06:27:28.196Z,4.84
2018-03-08T06:29:56.654Z,4.83
2018-03-08T06:32:24.991Z,4.82
2018-03-08T06:34:53.179Z,4.93
2018-03-08T06:37:21.363Z,4.89
2018-03-08T06:39:49.560Z,4.94
2018-03-08T06:42:17.735Z,5.01
2018-03-08T06:44:45.980Z,5.06
2018-03-08T06:47:14.148Z,5.10
2018-03-08T06:49:42.332Z,5.16
2018-03-08T06:52:10.525Z,5.18
2018-03-08T06:54:38.699Z,5.23
2018-03-08T06:57:06.892Z,5.28
2018-03-08T06:59:35.106Z,5.25
2018-03-08T07:02:04.060Z,5.27
2018-03-08T07:04:32.247Z,5.24
2018-03-08T07:07:00.481Z,5.22
2018-03-08T07:09:28.641Z,5.29
2018-03-08T07:11:56.806Z,5.35
2018-03-08T07:14:25.031Z,5.35
2018-03-08T07:16:53.214Z,5.32
2018-03-08T07:19:21.390Z,5.25
2018-03-08T07:21:49.608Z,5.22
2018-03-08T07:24:17.820Z,5.14
2018-03-08T07:26:46.022Z,5.07
2018-03-08T07:29:14.246Z,5.06
2018-03-08T07:31:42.421Z,5.08
2018-03-08T07:34:10.620Z,5.15
2018-03-08T07:36:38.799Z,5.19
2018-03-08T07:39:06.983Z,5.22
2018-03-08T07:41:35.208Z,5.24
2018-03-08T07:44:03.379Z,5.26
2018-03-08T07:46:31.553Z,5.32
2018-03-08T07:48:59.757Z,5.36
2018-03-08T07:51:27.942Z,5.42
2018-03-08T07:53:56.103Z,5.50
2018-03-08T07:56:24.325Z,5.56
2018-03-08T07:58:52.545Z,5.62
2018-03-08T08:01:20.726Z,5.68
2018-03-08T08:03:48.934Z,5.82
2018-03-08T08:06:35.113Z,5.90
2018-03-08T08:09:10.316Z,5.99
2018-03-08T08:11:38.489Z,6.05
2018-03-08T08:14:06.690Z,6.11
2018-03-08T08:16:34.854Z,6.18
2018-03-08T08:19:03.067Z,6.26
2018-03-08T08:21:31.238Z,6.39
2018-03-08T08:23:59.448Z,6.46
2018-03-08T08:26:27.640Z,6.58
2018-03-08T08:28:55.834Z,6.67
2018-03-08T08:31:24.095Z,6.77
2018-03-08T08:33:53.955Z,6.94
2018-03-08T08:36:22.151Z,7.05
2018-03-08T08:38:50.349Z,7.15
2018-03-08T08:41:19.277Z,7.22
2018-03-08T08:43:47.434Z,7.43
2018-03-08T08:46:15.609Z,7.66
2018-03-08T08:48:43.779Z,7.82
2018-03-08T08:51:11.988Z,8.06
2018-03-08T08:53:40.171Z,8.18
2018-03-08T08:56:08.351Z,8.33
2018-03-08T08:58:36.555Z,8.67
2018-03-08T09:01:05.499Z,8.83
2018-03-08T09:03:33.682Z,8.78
2018-03-08T09:06:01.855Z,8.95
2018-03-08T09:08:30.032Z,9.22
2018-03-08T09:10:58.223Z,9.31
2018-03-08T09:13:26.388Z,9.35
2018-03-08T09:15:55.339Z,9.61
2018-03-08T09:18:23.545Z,9.81
2018-03-08T09:20:51.710Z,9.87
2018-03-08T09:23:19.877Z,9.88
2018-03-08T09:25:48.063Z,10.16
2018-03-08T09:28:16.225Z,10.41
2018-03-08T09:30:44.462Z,10.59
2018-03-08T09:33:13.407Z,10.61
2018-03-08T09:35:41.619Z,10.77
2018-03-08T09:38:09.861Z,10.73
2018-03-08T09:40:38.019Z,11.05
2018-03-08T09:43:06.227Z,11.42
2018-03-08T09:45:34.409Z,11.58
2018-03-08T09:48:02.594Z,11.67
2018-03-08T09:50:30.775Z,11.82
2018-03-08T09:52:59.723Z,12.26
2018-03-08T09:55:27.926Z,12.65
2018-03-08T09:57:56.099Z,12.34
2018-03-08T10:00:24.266Z,12.38
2018-03-08T10:02:52.455Z,12.59
2018-03-08T10:05:20.627Z,13.03
2018-03-08T10:07:48.811Z,13.19
2018-03-08T10:10:17.778Z,13.58
2018-03-08T10:12:45.958Z,13.82
2018-03-08T10:15:14.129Z,14.09
2018-03-08T10:17:42.355Z,14.41
2018-03-08T10:20:11.306Z,14.45
2018-03-08T10:22:39.479Z,14.42
2018-03-08T10:25:07.657Z,14.48
2018-03-08T10:27:35.861Z,14.79
2018-03-08T10:30:04.800Z,14.93
2018-03-08T10:32:32.987Z,15.20
2018-03-08T10:35:01.186Z,15.43
2018-03-08T10:37:30.867Z,14.97
2018-03-08T10:39:59.025Z,14.84
2018-03-08T10:44:55.417Z,15.19
2018-03-08T10:47:23.594Z,14.71
2018-03-08T10:49:51.762Z,14.90
2018-03-08T10:52:21.436Z,14.93
2018-03-08T10:54:49.638Z,15.85
2018-03-08T10:57:17.816Z,16.75
2018-03-08T10:59:45.990Z,16.66
2018-03-08T11:02:17.250Z,17.05
2018-03-08T11:04:51.065Z,17.49
2018-03-08T11:07:20.006Z,17.86
2018-03-08T11:09:48.188Z,17.75
2018-03-08T11:12:16.365Z,17.57
2018-03-08T11:14:44.568Z,17.48
2018-03-08T11:17:12.737Z,17.54
2018-03-08T11:19:40.906Z,17.28
2018-03-08T11:22:09.071Z,17.50
2018-03-08T11:24:37.267Z,18.27
2018-03-08T11:27:06.217Z,18.52
2018-03-08T11:29:34.382Z,18.76
2018-03-08T11:32:02.563Z,18.80
2018-03-08T11:34:30.750Z,19.28
2018-03-08T11:36:58.924Z,19.51
2018-03-08T11:39:27.194Z,18.67
2018-03-08T11:41:55.379Z,18.77
2018-03-08T11:44:23.569Z,18.32
2018-03-08T11:46:51.736Z,19.49
2018-03-08T11:49:21.070Z,20.09
2018-03-08T11:51:48.150Z,21.15
2018-03-08T11:54:16.350Z,22.82
2018-03-08T11:56:44.523Z,26.38
2018-03-08T11:59:12.730Z,27.81
2018-03-08T12:01:40.928Z,28.76
2018-03-08T12:04:09.865Z,28.90
2018-03-08T12:06:38.038Z,31.24
2018-03-08T12:09:06.206Z,32.76
2018-03-08T12:11:34.379Z,32.95
2018-03-08T12:14:02.571Z,34.16
2018-03-08T12:16:30.734Z,35.26
2018-03-08T12:18:58.924Z,35.64
2018-03-08T12:21:27.103Z,36.13
2018-03-08T12:23:55.275Z,35.38
2018-03-08T12:26:23.439Z,35.99
2018-03-08T12:28:54.264Z,35.67
2018-03-08T12:31:22.436Z,36.39
2018-03-08T12:33:50.611Z,35.93
2018-03-08T12:36:18.916Z,33.59
2018-03-08T12:38:47.097Z,34.17
2018-03-08T12:41:15.320Z,33.80
2018-03-08T12:43:43.672Z,34.86
2018-03-08T12:46:12.659Z,34.91
2018-03-08T12:48:40.861Z,35.47
2018-03-08T12:51:09.028Z,36.57
2018-03-08T12:53:37.203Z,37.41
2018-03-08T12:56:06.165Z,38.24
2018-03-08T12:58:34.362Z,38.55
2018-03-08T13:01:03.439Z,36.83
2018-03-08T13:03:31.738Z,36.85
2018-03-08T13:06:00.678Z,34.46
2018-03-08T13:08:29.034Z,33.70
2018-03-08T13:10:57.194Z,34.09
2018-03-08T13:13:25.379Z,31.80
2018-03-08T13:15:53.551Z,32.17
2018-03-08T13:18:21.723Z,33.19
2018-03-08T13:20:49.919Z,31.18
2018-03-08T13:23:18.113Z,31.59
2018-03-08T13:25:46.335Z,30.71
2018-03-08T13:28:14.494Z,29.76
2018-03-08T13:30:42.695Z,28.72
2018-03-08T13:33:10.894Z,28.20
2018-03-08T13:35:39.072Z,28.81
2018-03-08T13:38:07.292Z,28.42
2018-03-08T13:40:36.239Z,28.60
2018-03-08T13:43:04.442Z,29.03
2018-03-08T13:45:32.608Z,31.91
2018-03-08T13:48:00.774Z,32.08
2018-03-08T13:50:28.943Z,27.89
2018-03-08T13:52:57.115Z,24.91
2018-03-08T13:55:25.310Z,23.66
2018-03-08T13:57:53.523Z,24.82
2018-03-08T14:00:22.487Z,26.35
2018-03-08T14:02:51.414Z,28.00
2018-03-08T14:05:20.347Z,29.86
2018-03-08T14:07:48.558Z,32.12
2018-03-08T14:10:16.746Z,30.88
2018-03-08T14:12:45.698Z,29.13
2018-03-08T14:15:13.891Z,31.93
2018-03-08T14:17:42.091Z,31.42
2018-03-08T14:20:11.081Z,28.75
2018-03-08T14:22:39.219Z,25.76
2018-03-08T14:25:07.387Z,23.91
2018-03-08T14:27:35.570Z,23.18
2018-03-08T14:30:03.744Z,24.88
2018-03-08T14:32:31.908Z,26.15
2018-03-08T14:35:00.096Z,25.44
2018-03-08T14:37:28.271Z,26.63
2018-03-08T14:39:56.451Z,29.27
2018-03-08T14:42:24.626Z,31.29
2018-03-08T14:44:53.584Z,31.19
2018-03-08T14:47:21.762Z,31.59
2018-03-08T14:49:49.930Z,30.58
2018-03-08T14:52:18.113Z,27.59
2018-03-08T14:54:46.279Z,26.79
2018-03-08T14:57:14.462Z,26.93
2018-03-08T14:59:42.640Z,26.05
2018-03-08T15:02:10.802Z,26.14
2018-03-08T15:04:39.005Z,27.36
2018-03-08T15:07:07.186Z,26.83
2018-03-08T15:09:40.058Z,28.00
2018-03-08T15:12:11.221Z,28.47
2018-03-08T15:14:40.387Z,28.59
2018-03-08T15:17:08.588Z,28.51
2018-03-08T15:19:36.763Z,28.96
2018-03-08T15:22:05.715Z,28.81
2018-03-08T15:24:36.647Z,28.72
2018-03-08T15:27:05.045Z,28.84
2018-03-08T15:29:33.236Z,29.30
2018-03-08T15:32:01.430Z,26.93
2018-03-08T15:34:29.876Z,27.21
2018-03-08T15:36:59.329Z,27.90
2018-03-08T15:39:29.673Z,28.58
2018-03-08T15:41:58.643Z,26.62
2018-03-08T15:44:26.826Z,25.65
2018-03-08T15:47:00.239Z,25.73
2018-03-08T15:49:30.091Z,25.53
2018-03-08T15:51:58.272Z,25.35
2018-03-08T15:54:27.149Z,23.62
2018-03-08T15:57:00.138Z,22.25
2018-03-08T15:59:28.314Z,20.79
2018-03-08T16:01:57.819Z,19.94
2018-03-08T16:04:26.008Z,19.40
2018-03-08T16:10:36.497Z,18.38
2018-03-08T16:13:04.826Z,16.97
2018-03-08T16:15:33.786Z,16.44
2018-03-08T16:18:01.954Z,15.84
2018-03-08T16:20:30.135Z,15.34
2018-03-08T16:22:58.311Z,14.76
2018-03-08T16:25:26.507Z,14.46
2018-03-08T16:27:55.451Z,14.12
2018-03-08T16:30:23.795Z,13.99
2018-03-08T16:32:56.061Z,13.58
2018-03-08T16:35:24.446Z,13.43
2018-03-08T16:37:52.636Z,13.38
2018-03-08T16:40:20.812Z,13.16
2018-03-08T16:42:49.809Z,12.91
2018-03-08T16:45:21.480Z,12.70
2018-03-08T16:47:49.739Z,12.57
2018-03-08T16:50:17.935Z,12.39
2018-03-08T16:52:50.956Z,12.26
2018-03-08T16:55:19.383Z,12.14
2018-03-08T16:57:47.607Z,12.10
2018-03-08T17:00:15.823Z,12.02
2018-03-08T17:02:47.698Z,11.98
2018-03-08T17:05:16.929Z,11.77
2018-03-08T17:07:45.134Z,11.63
2018-03-08T17:10:14.109Z,11.56
2018-03-08T17:12:42.308Z,11.39
2018-03-08T17:15:11.242Z,11.30
2018-03-08T17:17:39.433Z,11.24
2018-03-08T17:20:07.618Z,11.11
2018-03-08T17:22:35.800Z,11.08
2018-03-08T17:25:04.008Z,11.01
2018-03-08T17:27:32.227Z,10.84
2018-03-08T17:30:00.475Z,10.76
2018-03-08T17:32:28.637Z,10.64
2018-03-08T17:34:56.825Z,10.60
2018-03-08T17:37:25.028Z,10.51
2018-03-08T17:39:53.202Z,10.43
2018-03-08T17:42:21.426Z,10.42
2018-03-08T17:44:49.647Z,10.38
2018-03-08T17:47:17.850Z,10.33
2018-03-08T17:49:46.043Z,10.20
2018-03-08T17:52:19.190Z,10.16
2018-03-08T17:54:48.539Z,10.10
2018-03-08T17:57:17.493Z,10.12
2018-03-08T17:59:45.836Z,9.96
2018-03-08T18:02:14.841Z,9.87
2018-03-08T18:04:43.436Z,9.70
2018-03-08T18:07:15.697Z,9.58
2018-03-08T18:09:44.190Z,9.52
2018-03-08T18:12:12.379Z,9.47
2018-03-08T18:14:40.569Z,9.44
2018-03-08T18:17:09.772Z,9.34
2018-03-08T18:19:37.988Z,9.26
2018-03-08T18:22:06.158Z,9.15
2018-03-08T18:24:34.349Z,9.09
2018-03-08T18:27:02.514Z,8.99
2018-03-08T18:29:30.708Z,9.03
2018-03-08T18:31:58.882Z,8.93
2018-03-08T18:34:27.150Z,8.87
2018-03-08T18:36:55.324Z,8.75
2018-03-08T18:39:23.512Z,8.63
2018-03-08T18:41:51.716Z,8.53
2018-03-08T18:44:19.896Z,8.49
2018-03-08T18:46:48.127Z,8.47
2018-03-08T18:49:16.306Z,8.29
2018-03-08T18:51:44.484Z,8.20
2018-03-08T18:54:12.698Z,8.14
2018-03-08T18:56:41.653Z,8.08
2018-03-08T18:59:09.828Z,7.99
2018-03-08T19:01:37.994Z,7.88
2018-03-08T19:04:06.183Z,7.79
2018-03-08T19:06:34.372Z,7.66
2018-03-08T19:09:02.571Z,7.62
2018-03-08T19:11:31.560Z,7.64
2018-03-08T19:14:00.513Z,7.65
2018-03-08T19:16:28.693Z,7.57
2018-03-08T19:18:56.881Z,7.47
2018-03-08T19:21:25.083Z,7.47
2018-03-08T19:23:54.046Z,7.45
2018-03-08T19:26:22.255Z,7.41
2018-03-08T19:28:51.217Z,7.32
2018-03-08T19:31:19.416Z,7.36
2018-03-08T19:33:48.383Z,7.30
2018-03-08T19:36:16.697Z,7.28
2018-03-08T19:38:44.894Z,7.28
2018-03-08T19:41:13.093Z,7.26
2018-03-08T19:43:41.301Z,7.28
2018-03-08T19:46:09.488Z,7.22
2018-03-08T19:48:38.524Z,7.24
2018-03-08T19:51:06.719Z,7.19
2018-03-08T19:53:34.904Z,7.09
2018-03-08T19:56:03.089Z,7.09
2018-03-08T19:58:31.299Z,7.05
2018-03-08T20:00:59.471Z,6.93
2018-03-08T20:03:27.662Z,6.94
2018-03-08T20:05:55.843Z,6.91
2018-03-08T20:08:24.013Z,6.94
2018-03-08T20:10:52.197Z,6.90
2018-03-08T20:13:20.379Z,6.89
2018-03-08T20:15:48.555Z,6.78
2018-03-08T20:18:16.731Z,6.74
2018-03-08T20:20:44.923Z,6.67
2018-03-08T20:23:13.133Z,6.63
2018-03-08T20:25:42.063Z,6.56
2018-03-08T20:28:10.249Z,6.54
2018-03-08T20:30:38.464Z,6.54
2018-03-08T20:33:07.411Z,6.46
2018-03-08T20:35:35.598Z,6.43
2018-03-08T20:38:03.784Z,6.47
2018-03-08T20:40:32.035Z,6.47
2018-03-08T20:43:00.211Z,6.44
2018-03-08T20:45:28.410Z,6.41
2018-03-08T20:47:56.603Z,6.41
2018-03-08T20:50:25.562Z,6.41
2018-03-08T20:52:53.736Z,6.43
2018-03-08T20:55:22.000Z,6.33
2018-03-08T20:57:50.206Z,6.19
2018-03-08T21:00:18.386Z,6.17
2018-03-08T21:02:46.590Z,6.16
2018-03-08T21:05:15.620Z,6.03
2018-03-08T21:07:43.812Z,5.99
2018-03-08T21:10:11.988Z,5.90
2018-03-08T21:12:40.190Z,5.86
2018-03-08T21:15:09.125Z,5.87
2018-03-08T21:17:37.358Z,5.73
2018-03-08T21:20:07.099Z,5.71
2018-03-08T21:22:35.281Z,5.67
2018-03-08T21:25:03.477Z,5.57
2018-03-08T21:27:31.671Z,5.56
2018-03-08T21:29:59.850Z,5.54
2018-03-08T21:32:28.825Z,5.54
2018-03-08T21:34:57.044Z,5.49
2018-03-08T21:37:25.999Z,5.48
2018-03-08T21:39:54.172Z,5.49
2018-03-08T21:42:22.367Z,5.43
2018-03-08T21:44:50.570Z,5.43
2018-03-08T21:47:19.513Z,5.36
2018-03-08T21:49:47.721Z,5.35
2018-03-08T21:52:15.912Z,5.32
2018-03-08T21:54:44.877Z,5.25
2018-03-08T21:57:13.061Z,5.26
2018-03-08T21:59:41.245Z,5.17
2018-03-08T22:02:10.208Z,5.12
2018-03-08T22:04:39.162Z,5.03
2018-03-08T22:07:07.357Z,4.89
2018-03-08T22:09:35.564Z,5.05
2018-03-08T22:12:03.748Z,5.07
2018-03-08T22:14:32.708Z,5.06
2018-03-08T22:17:00.898Z,5.05
2018-03-08T22:19:29.079Z,5.09
2018-03-08T22:21:57.274Z,5.15
2018-03-08T22:24:26.305Z,5.07
2018-03-08T22:26:54.517Z,4.94
2018-03-08T22:29:22.688Z,4.89
2018-03-08T22:31:50.886Z,4.84
2018-03-08T22:34:19.058Z,4.86
2018-03-08T22:36:47.217Z,4.84
2018-03-08T22:39:15.410Z,4.89
2018-03-08T22:41:43.590Z,4.92
2018-03-08T22:44:12.545Z,4.91
2018-03-08T22:46:40.763Z,4.83
2018-03-08T22:49:09.730Z,4.73
2018-03-08T22:51:37.914Z,4.73
2018-03-08T22:54:06.087Z,4.66
2018-03-08T22:56:34.259Z,4.65
2018-03-08T22:59:02.446Z,4.61
2018-03-08T23:04:51.005Z,4.46
2018-03-08T23:07:19.244Z,4.46
2018-03-08T23:09:47.423Z,4.43
2018-03-08T23:12:15.622Z,4.38
2018-03-08T23:14:43.818Z,4.31
2018-03-08T23:17:11.984Z,4.26
2018-03-08T23:19:41.667Z,4.27
2018-03-08T23:22:09.864Z,4.23
2018-03-08T23:24:38.063Z,4.19
2018-03-08T23:27:06.992Z,4.15
2018-03-08T23:29:35.167Z,4.17
2018-03-08T23:32:03.347Z,4.09
2018-03-08T23:34:31.507Z,4.03
2018-03-08T23:36:59.677Z,3.94
2018-03-08T23:39:27.871Z,3.94
2018-03-08T23:41:56.060Z,3.89
2018-03-08T23:44:24.269Z,3.86
2018-03-08T23:46:52.436Z,3.77
2018-03-08T23:49:20.623Z,3.74
2018-03-08T23:51:49.571Z,3.69
2018-03-08T23:54:17.843Z,3.62
2018-03-08T23:56:46.036Z,3.64
2018-03-08T23:59:14.210Z,3.63
